Gates, Tennessee
Current Conditions -  °F | °C
As of 2:55 PM on Sunday 21 Dec 2014 (Local Time) from KDYR Reporting Station
Clear Clear  
Wind Chill: 52°   Ceiling: Unl
Heat Index: 52°   Visibility: 10mi
Dew Point: 27°   Wind: 5mph
Humidity: 38%   Direction: 120°ESE
Pressure: 30.07"   Gusts: NA
Location:  35.84°N, 89.41°W
Report Text: KDYR 212055Z 12004KT 10SM CLR 11/M03 A3007 RMK AO1 57034
Loading
Personal Weather Stations






























Interactive Weather Map New forecast layout! Learn more

10-Day Weather Forecast

Advertisements
Track Severe Weather on mobile